sensor_id;sensor_type;location;lat;lon;timestamp;pressure;altitude;pressure_sealevel;temperature;humidity
70200;BME280;57587;55.688;37.600;2023-01-05T00:01:08;98636.75;;;0.74;61.12
70200;BME280;57587;55.688;37.600;2023-01-05T00:03:36;98641.06;;;0.75;60.44
70200;BME280;57587;55.688;37.600;2023-01-05T00:06:06;98632.75;;;0.70;61.00
70200;BME280;57587;55.688;37.600;2023-01-05T00:08:34;98640.25;;;0.75;61.22
70200;BME280;57587;55.688;37.600;2023-01-05T00:11:10;98627.44;;;0.80;60.53
70200;BME280;57587;55.688;37.600;2023-01-05T00:13:56;98625.81;;;0.79;60.64
70200;BME280;57587;55.688;37.600;2023-01-05T00:16:42;98637.31;;;0.78;60.69
70200;BME280;57587;55.688;37.600;2023-01-05T00:19:28;98624.28;;;0.76;60.69
70200;BME280;57587;55.688;37.600;2023-01-05T00:22:18;98633.84;;;0.77;60.69
70200;BME280;57587;55.688;37.600;2023-01-05T00:25:09;98625.69;;;0.71;61.15
70200;BME280;57587;55.688;37.600;2023-01-05T00:27:40;98629.84;;;0.73;61.16
70200;BME280;57587;55.688;37.600;2023-01-05T00:30:12;98626.91;;;0.76;61.17
70200;BME280;57587;55.688;37.600;2023-01-05T00:32:41;98620.53;;;0.79;61.44
70200;BME280;57587;55.688;37.600;2023-01-05T00:35:10;98621.66;;;0.76;60.56
70200;BME280;57587;55.688;37.600;2023-01-05T00:37:38;98617.47;;;0.83;60.76
70200;BME280;57587;55.688;37.600;2023-01-05T00:40:07;98618.56;;;0.90;60.11
70200;BME280;57587;55.688;37.600;2023-01-05T00:42:35;98612.75;;;0.87;60.14
70200;BME280;57587;55.688;37.600;2023-01-05T00:45:05;98616.75;;;0.91;60.37
70200;BME280;57587;55.688;37.600;2023-01-05T00:47:33;98616.88;;;0.89;60.03
70200;BME280;57587;55.688;37.600;2023-01-05T00:50:00;98608.31;;;0.87;59.58
70200;BME280;57587;55.688;37.600;2023-01-05T00:52:29;98602.81;;;0.99;59.83
70200;BME280;57587;55.688;37.600;2023-01-05T00:54:56;98606.16;;;1.01;60.61
70200;BME280;57587;55.688;37.600;2023-01-05T00:57:23;98607.97;;;1.00;59.17
70200;BME280;57587;55.688;37.600;2023-01-05T00:59:52;98603.97;;;0.96;59.26
70200;BME280;57587;55.688;37.600;2023-01-05T01:02:19;98606.44;;;0.98;60.48
70200;BME280;57587;55.688;37.600;2023-01-05T01:04:46;98605.41;;;1.08;60.88
70200;BME280;57587;55.688;37.600;2023-01-05T01:07:13;98608.69;;;1.20;59.58
70200;BME280;57587;55.688;37.600;2023-01-05T01:09:42;98605.81;;;1.13;60.66
70200;BME280;57587;55.688;37.600;2023-01-05T01:12:09;98615.66;;;1.11;61.90
70200;BME280;57587;55.688;37.600;2023-01-05T01:14:37;98607.16;;;1.18;62.73
70200;BME280;57587;55.688;37.600;2023-01-05T01:17:04;98612.13;;;1.21;62.67
70200;BME280;57587;55.688;37.600;2023-01-05T01:19:32;98598.13;;;1.20;62.50
70200;BME280;57587;55.688;37.600;2023-01-05T01:21:59;98597.84;;;1.23;62.24
70200;BME280;57587;55.688;37.600;2023-01-05T01:24:27;98602.81;;;1.26;60.71
70200;BME280;57587;55.688;37.600;2023-01-05T01:26:55;98603.94;;;1.24;59.53
70200;BME280;57587;55.688;37.600;2023-01-05T01:29:22;98595.44;;;1.12;58.71
70200;BME280;57587;55.688;37.600;2023-01-05T01:31:51;98601.66;;;1.11;59.08
70200;BME280;57587;55.688;37.600;2023-01-05T01:34:19;98597.22;;;1.11;58.37
70200;BME280;57587;55.688;37.600;2023-01-05T01:36:46;98603.03;;;1.15;58.66
70200;BME280;57587;55.688;37.600;2023-01-05T01:39:17;98607.09;;;1.09;59.21
70200;BME280;57587;55.688;37.600;2023-01-05T01:41:48;98602.34;;;1.13;59.48
70200;BME280;57587;55.688;37.600;2023-01-05T01:47:43;98606.25;;;1.09;60.75
70200;BME280;57587;55.688;37.600;2023-01-05T01:50:26;98604.81;;;1.14;60.82
70200;BME280;57587;55.688;37.600;2023-01-05T01:52:59;98600.41;;;1.15;61.04
70200;BME280;57587;55.688;37.600;2023-01-05T01:55:28;98598.38;;;1.09;59.32
70200;BME280;57587;55.688;37.600;2023-01-05T01:57:58;98594.34;;;1.05;59.63
70200;BME280;57587;55.688;37.600;2023-01-05T02:00:26;98587.72;;;1.01;59.77
70200;BME280;57587;55.688;37.600;2023-01-05T02:02:54;98598.88;;;1.12;59.73
70200;BME280;57587;55.688;37.600;2023-01-05T02:05:28;98597.44;;;1.00;58.94
70200;BME280;57587;55.688;37.600;2023-01-05T02:07:56;98590.06;;;1.04;59.46
70200;BME280;57587;55.688;37.600;2023-01-05T02:10:56;98596.31;;;1.03;59.74
70200;BME280;57587;55.688;37.600;2023-01-05T02:19:50;98590.06;;;1.04;58.21
70200;BME280;57587;55.688;37.600;2023-01-05T02:27:52;98584.78;;;1.04;58.02
70200;BME280;57587;55.688;37.600;2023-01-05T02:30:58;98589.06;;;1.05;56.94
70200;BME280;57587;55.688;37.600;2023-01-05T02:36:26;98573.38;;;1.13;57.52
70200;BME280;57587;55.688;37.600;2023-01-05T02:39:08;98571.63;;;1.04;58.03
70200;BME280;57587;55.688;37.600;2023-01-05T02:41:47;98568.97;;;1.04;57.33
70200;BME280;57587;55.688;37.600;2023-01-05T02:44:17;98568.00;;;1.05;57.12
70200;BME280;57587;55.688;37.600;2023-01-05T02:47:01;98567.03;;;1.06;57.53
70200;BME280;57587;55.688;37.600;2023-01-05T02:49:32;98563.56;;;1.05;58.08
70200;BME280;57587;55.688;37.600;2023-01-05T02:52:05;98555.06;;;0.94;57.86
70200;BME280;57587;55.688;37.600;2023-01-05T02:54:43;98557.91;;;1.00;58.33
70200;BME280;57587;55.688;37.600;2023-01-05T02:57:18;98564.31;;;0.98;57.99
70200;BME280;57587;55.688;37.600;2023-01-05T02:59:49;98560.69;;;0.99;58.15
70200;BME280;57587;55.688;37.600;2023-01-05T03:02:21;98561.38;;;1.01;58.54
70200;BME280;57587;55.688;37.600;2023-01-05T03:07:28;98555.81;;;1.04;58.01
70200;BME280;57587;55.688;37.600;2023-01-05T03:09:57;98547.81;;;0.96;58.77
70200;BME280;57587;55.688;37.600;2023-01-05T03:12:45;98554.47;;;1.00;56.76
70200;BME280;57587;55.688;37.600;2023-01-05T03:15:32;98548.41;;;0.89;56.13
70200;BME280;57587;55.688;37.600;2023-01-05T03:18:04;98552.72;;;0.90;56.17
70200;BME280;57587;55.688;37.600;2023-01-05T03:20:34;98548.16;;;0.83;56.39
70200;BME280;57587;55.688;37.600;2023-01-05T03:23:05;98548.16;;;0.83;55.23
70200;BME280;57587;55.688;37.600;2023-01-05T03:25:54;98550.38;;;0.87;56.09
70200;BME280;57587;55.688;37.600;2023-01-05T03:28:43;98547.34;;;0.82;55.83
70200;BME280;57587;55.688;37.600;2023-01-05T03:31:38;98546.50;;;0.82;56.65
70200;BME280;57587;55.688;37.600;2023-01-05T03:34:42;98529.59;;;0.84;56.16
70200;BME280;57587;55.688;37.600;2023-01-05T03:37:36;98530.84;;;0.80;56.11
70200;BME280;57587;55.688;37.600;2023-01-05T03:40:19;98533.13;;;0.75;54.93
70200;BME280;57587;55.688;37.600;2023-01-05T03:42:51;98527.75;;;0.67;54.92
70200;BME280;57587;55.688;37.600;2023-01-05T03:45:20;98529.69;;;0.65;55.44
70200;BME280;57587;55.688;37.600;2023-01-05T03:47:48;98527.75;;;0.67;55.22
70200;BME280;57587;55.688;37.600;2023-01-05T03:50:21;98520.88;;;0.56;55.47
70200;BME280;57587;55.688;37.600;2023-01-05T03:52:48;98523.94;;;0.52;55.17
70200;BME280;57587;55.688;37.600;2023-01-05T03:55:16;98527.69;;;0.49;55.94
70200;BME280;57587;55.688;37.600;2023-01-05T03:57:43;98521.75;;;0.47;56.03
70200;BME280;57587;55.688;37.600;2023-01-05T04:00:10;98521.84;;;0.55;55.67
70200;BME280;57587;55.688;37.600;2023-01-05T04:02:44;98518.50;;;0.63;55.76
70200;BME280;57587;55.688;37.600;2023-01-05T04:05:15;98516.16;;;0.60;55.83
70200;BME280;57587;55.688;37.600;2023-01-05T04:07:42;98516.16;;;0.60;56.45
70200;BME280;57587;55.688;37.600;2023-01-05T04:10:11;98515.94;;;0.71;55.03
70200;BME280;57587;55.688;37.600;2023-01-05T04:12:40;98517.97;;;0.77;55.38
70200;BME280;57587;55.688;37.600;2023-01-05T04:15:07;98517.97;;;0.77;55.48
70200;BME280;57587;55.688;37.600;2023-01-05T04:17:36;98519.34;;;0.81;55.81
70200;BME280;57587;55.688;37.600;2023-01-05T04:20:03;98521.16;;;0.81;56.06
70200;BME280;57587;55.688;37.600;2023-01-05T04:22:32;98516.34;;;0.76;55.93
70200;BME280;57587;55.688;37.600;2023-01-05T04:25:00;98517.25;;;0.85;55.24
70200;BME280;57587;55.688;37.600;2023-01-05T04:27:29;98513.34;;;0.89;55.54
70200;BME280;57587;55.688;37.600;2023-01-05T04:29:56;98510.19;;;0.85;56.16
70200;BME280;57587;55.688;37.600;2023-01-05T04:32:24;98509.34;;;0.85;55.24
70200;BME280;57587;55.688;37.600;2023-01-05T04:34:51;98503.50;;;0.91;54.81
70200;BME280;57587;55.688;37.600;2023-01-05T04:37:20;98507.25;;;0.88;54.69
70200;BME280;57587;55.688;37.600;2023-01-05T04:39:47;98504.38;;;0.82;54.68
70200;BME280;57587;55.688;37.600;2023-01-05T04:42:15;98497.91;;;0.76;55.23
70200;BME280;57587;55.688;37.600;2023-01-05T04:44:45;98494.69;;;0.82;54.99
70200;BME280;57587;55.688;37.600;2023-01-05T04:47:12;98494.38;;;0.85;54.51
70200;BME280;57587;55.688;37.600;2023-01-05T04:49:40;98494.53;;;0.84;54.92
70200;BME280;57587;55.688;37.600;2023-01-05T04:52:09;98494.56;;;0.74;54.61
70200;BME280;57587;55.688;37.600;2023-01-05T04:54:36;98492.09;;;0.73;55.15
70200;BME280;57587;55.688;37.600;2023-01-05T04:57:05;98494.97;;;0.79;54.57
70200;BME280;57587;55.688;37.600;2023-01-05T04:59:32;98496.91;;;0.77;54.59
70200;BME280;57587;55.688;37.600;2023-01-05T05:02:02;98489.41;;;0.82;54.70
70200;BME280;57587;55.688;37.600;2023-01-05T05:04:31;98488.06;;;0.78;55.14
70200;BME280;57587;55.688;37.600;2023-01-05T05:07:00;98481.97;;;0.78;55.33
70200;BME280;57587;55.688;37.600;2023-01-05T05:09:30;98485.78;;;0.83;55.40
70200;BME280;57587;55.688;37.600;2023-01-05T05:11:58;98489.63;;;0.89;55.62
70200;BME280;57587;55.688;37.600;2023-01-05T05:14:26;98484.38;;;0.89;55.74
70200;BME280;57587;55.688;37.600;2023-01-05T05:16:57;98481.31;;;0.94;54.51
70200;BME280;57587;55.688;37.600;2023-01-05T05:19:24;98476.63;;;0.87;54.79
70200;BME280;57587;55.688;37.600;2023-01-05T05:21:52;98483.84;;;0.85;55.64
70200;BME280;57587;55.688;37.600;2023-01-05T05:24:19;98480.22;;;0.86;54.28
70200;BME280;57587;55.688;37.600;2023-01-05T05:26:48;98478.28;;;0.88;53.70
70200;BME280;57587;55.688;37.600;2023-01-05T05:29:15;98484.75;;;0.94;54.32
70200;BME280;57587;55.688;37.600;2023-01-05T05:31:42;98477.84;;;0.93;52.94
70200;BME280;57587;55.688;37.600;2023-01-05T05:34:09;98480.22;;;0.86;54.70
70200;BME280;57587;55.688;37.600;2023-01-05T05:36:36;98476.63;;;0.87;53.77
70200;BME280;57587;55.688;37.600;2023-01-05T05:39:03;98476.09;;;0.84;53.63
70200;BME280;57587;55.688;37.600;2023-01-05T05:41:30;98478.06;;;0.82;53.79
70200;BME280;57587;55.688;37.600;2023-01-05T05:43:58;98470.75;;;0.76;53.26
70200;BME280;57587;55.688;37.600;2023-01-05T05:46:27;98473.22;;;0.77;52.15
70200;BME280;57587;55.688;37.600;2023-01-05T05:48:55;98472.25;;;0.78;52.69
70200;BME280;57587;55.688;37.600;2023-01-05T05:51:23;98474.59;;;0.81;52.05
70200;BME280;57587;55.688;37.600;2023-01-05T05:53:51;98476.53;;;0.79;52.24
70200;BME280;57587;55.688;37.600;2023-01-05T05:56:18;98485.03;;;0.73;52.05
70200;BME280;57587;55.688;37.600;2023-01-05T05:58:45;98481.97;;;0.78;51.67
70200;BME280;57587;55.688;37.600;2023-01-05T06:01:12;98474.38;;;0.75;51.90
70200;BME280;57587;55.688;37.600;2023-01-05T06:03:39;98469.91;;;0.75;51.84
70200;BME280;57587;55.688;37.600;2023-01-05T06:06:07;98469.09;;;0.75;51.38
70200;BME280;57587;55.688;37.600;2023-01-05T06:08:34;98473.75;;;0.63;50.10
70200;BME280;57587;55.688;37.600;2023-01-05T06:11:01;98474.03;;;0.60;51.46
70200;BME280;57587;55.688;37.600;2023-01-05T06:13:28;98468.75;;;0.60;50.93
70200;BME280;57587;55.688;37.600;2023-01-05T06:15:55;98459.19;;;0.59;51.52
70200;BME280;57587;55.688;37.600;2023-01-05T06:18:22;98453.94;;;0.59;50.74
70200;BME280;57587;55.688;37.600;2023-01-05T06:20:50;98460.75;;;0.52;50.76
70200;BME280;57587;55.688;37.600;2023-01-05T06:23:23;98458.13;;;0.52;51.01
70200;BME280;57587;55.688;37.600;2023-01-05T06:25:50;98459.34;;;0.57;50.85
70200;BME280;57587;55.688;37.600;2023-01-05T06:28:17;98450.34;;;0.60;51.34
70200;BME280;57587;55.688;37.600;2023-01-05T06:30:46;98450.88;;;0.63;51.22
70200;BME280;57587;55.688;37.600;2023-01-05T06:33:13;98456.22;;;0.72;50.05
70200;BME280;57587;55.688;37.600;2023-01-05T06:35:40;98457.06;;;0.72;50.69
70200;BME280;57587;55.688;37.600;2023-01-05T06:38:07;98456.88;;;0.74;50.78
70200;BME280;57587;55.688;37.600;2023-01-05T06:40:40;98449.53;;;0.77;51.10
70200;BME280;57587;55.688;37.600;2023-01-05T06:43:10;98456.16;;;0.81;50.75
70200;BME280;57587;55.688;37.600;2023-01-05T06:45:37;98444.53;;;0.74;51.39
70200;BME280;57587;55.688;37.600;2023-01-05T06:48:05;98446.34;;;0.74;51.38
70200;BME280;57587;55.688;37.600;2023-01-05T06:50:32;98448.47;;;0.70;51.60
70200;BME280;57587;55.688;37.600;2023-01-05T06:52:59;98458.75;;;0.63;52.58
70200;BME280;57587;55.688;37.600;2023-01-05T06:55:26;98448.25;;;0.63;51.97
70200;BME280;57587;55.688;37.600;2023-01-05T06:57:53;98455.94;;;0.75;52.54
70200;BME280;57587;55.688;37.600;2023-01-05T07:00:27;98444.47;;;0.66;52.73
70200;BME280;57587;55.688;37.600;2023-01-05T07:02:54;98451.69;;;0.64;52.16
70200;BME280;57587;55.688;37.600;2023-01-05T07:05:21;98451.75;;;0.54;51.18
70200;BME280;57587;55.688;37.600;2023-01-05T07:07:50;98459.78;;;0.53;51.97
70200;BME280;57587;55.688;37.600;2023-01-05T07:10:17;98459.13;;;0.51;51.91
70200;BME280;57587;55.688;37.600;2023-01-05T07:12:44;98459.47;;;0.38;53.04
70200;BME280;57587;55.688;37.600;2023-01-05T07:15:11;98449.56;;;0.22;52.69
70200;BME280;57587;55.688;37.600;2023-01-05T07:17:39;98456.50;;;0.23;51.85
70200;BME280;57587;55.688;37.600;2023-01-05T07:20:07;98455.91;;;0.29;52.04
70200;BME280;57587;55.688;37.600;2023-01-05T07:22:35;98450.34;;;0.32;51.92
70200;BME280;57587;55.688;37.600;2023-01-05T07:25:02;98457.31;;;0.23;51.14
70200;BME280;57587;55.688;37.600;2023-01-05T07:27:29;98453.78;;;0.05;52.16
70200;BME280;57587;55.688;37.600;2023-01-05T07:29:57;98454.81;;;-0.06;52.48
70200;BME280;57587;55.688;37.600;2023-01-05T07:32:24;98446.22;;;-0.08;53.60
70200;BME280;57587;55.688;37.600;2023-01-05T07:34:51;98451.91;;;-0.03;52.93
70200;BME280;57587;55.688;37.600;2023-01-05T07:37:22;98455.19;;;-0.01;52.64
70200;BME280;57587;55.688;37.600;2023-01-05T07:39:51;98451.59;;;0.01;52.37
70200;BME280;57587;55.688;37.600;2023-01-05T07:42:18;98462.22;;;0.09;52.42
70200;BME280;57587;55.688;37.600;2023-01-05T07:44:47;98454.56;;;0.15;52.09
70200;BME280;57587;55.688;37.600;2023-01-05T07:47:14;98460.81;;;0.14;52.07
70200;BME280;57587;55.688;37.600;2023-01-05T07:49:41;98449.06;;;0.09;51.55
70200;BME280;57587;55.688;37.600;2023-01-05T07:52:08;98450.03;;;0.08;52.49
70200;BME280;57587;55.688;37.600;2023-01-05T07:54:35;98447.81;;;0.13;52.90
70200;BME280;57587;55.688;37.600;2023-01-05T07:57:02;98448.19;;;0.18;52.44
70200;BME280;57587;55.688;37.600;2023-01-05T07:59:30;98448.72;;;0.21;52.38
70200;BME280;57587;55.688;37.600;2023-01-05T08:01:57;98441.28;;;0.17;53.14
70200;BME280;57587;55.688;37.600;2023-01-05T08:04:24;98444.03;;;0.15;52.95
70200;BME280;57587;55.688;37.600;2023-01-05T08:06:51;98441.97;;;0.19;52.44
70200;BME280;57587;55.688;37.600;2023-01-05T08:09:18;98442.94;;;0.18;52.10
70200;BME280;57587;55.688;37.600;2023-01-05T08:12:04;98445.50;;;0.28;52.97
70200;BME280;57587;55.688;37.600;2023-01-05T08:14:32;98438.06;;;0.23;52.50
70200;BME280;57587;55.688;37.600;2023-01-05T08:16:59;98436.56;;;0.20;51.93
70200;BME280;57587;55.688;37.600;2023-01-05T08:19:26;98444.31;;;0.22;52.89
70200;BME280;57587;55.688;37.600;2023-01-05T08:21:53;98437.75;;;-0.02;52.49
70200;BME280;57587;55.688;37.600;2023-01-05T08:24:20;98438.22;;;-0.06;52.72
70200;BME280;57587;55.688;37.600;2023-01-05T08:26:49;98437.19;;;0.05;53.04
70200;BME280;57587;55.688;37.600;2023-01-05T08:29:16;98436.69;;;-0.09;52.79
70200;BME280;57587;55.688;37.600;2023-01-05T08:31:44;98438.88;;;-0.04;52.76
70200;BME280;57587;55.688;37.600;2023-01-05T08:34:12;98442.78;;;-0.08;53.48
70200;BME280;57587;55.688;37.600;2023-01-05T08:36:39;98430.59;;;-0.09;52.61
70200;BME280;57587;55.688;37.600;2023-01-05T08:39:09;98435.41;;;-0.05;53.05
70200;BME280;57587;55.688;37.600;2023-01-05T08:41:37;98432.25;;;-0.08;53.33
70200;BME280;57587;55.688;37.600;2023-01-05T08:44:12;98420.66;;;-0.15;52.91
70200;BME280;57587;55.688;37.600;2023-01-05T08:46:40;98422.59;;;-0.17;53.96
70200;BME280;57587;55.688;37.600;2023-01-05T08:49:07;98420.91;;;-0.09;54.14
70200;BME280;57587;55.688;37.600;2023-01-05T08:51:35;98421.41;;;0.05;53.40
70200;BME280;57587;55.688;37.600;2023-01-05T08:54:03;98407.06;;;-0.11;53.39
70200;BME280;57587;55.688;37.600;2023-01-05T08:56:30;98412.66;;;-0.24;53.64
70200;BME280;57587;55.688;37.600;2023-01-05T08:59:05;98416.28;;;-0.25;54.05
70200;BME280;57587;55.688;37.600;2023-01-05T09:01:32;98416.28;;;-0.25;54.37
70200;BME280;57587;55.688;37.600;2023-01-05T09:03:59;98412.66;;;-0.24;54.07
70200;BME280;57587;55.688;37.600;2023-01-05T09:06:26;98409.88;;;-0.12;54.06
70200;BME280;57587;55.688;37.600;2023-01-05T09:08:53;98399.19;;;-0.11;53.96
70200;BME280;57587;55.688;37.600;2023-01-05T09:11:22;98406.09;;;-0.10;53.86
70200;BME280;57587;55.688;37.600;2023-01-05T09:13:52;98402.94;;;-0.13;53.53
70200;BME280;57587;55.688;37.600;2023-01-05T09:16:21;98392.94;;;-0.10;53.96
70200;BME280;57587;55.688;37.600;2023-01-05T09:19:10;98395.72;;;-0.11;54.47
70200;BME280;57587;55.688;37.600;2023-01-05T09:21:37;98394.97;;;-0.31;54.09
70200;BME280;57587;55.688;37.600;2023-01-05T09:24:07;98382.25;;;-0.36;54.38
70200;BME280;57587;55.688;37.600;2023-01-05T09:26:41;98381.16;;;-0.33;54.60
70200;BME280;57587;55.688;37.600;2023-01-05T09:29:10;98388.00;;;-0.22;54.89
70200;BME280;57587;55.688;37.600;2023-01-05T09:31:39;98389.94;;;-0.15;54.31
70200;BME280;57587;55.688;37.600;2023-01-05T09:34:06;98378.31;;;-0.12;53.58
70200;BME280;57587;55.688;37.600;2023-01-05T09:36:33;98387.84;;;-0.11;53.42
70200;BME280;57587;55.688;37.600;2023-01-05T09:39:02;98385.22;;;-0.11;53.94
70200;BME280;57587;55.688;37.600;2023-01-05T09:41:53;98386.84;;;-0.10;53.73
70200;BME280;57587;55.688;37.600;2023-01-05T09:46:49;98368.16;;;-0.07;53.04
70200;BME280;57587;55.688;37.600;2023-01-05T09:49:20;98362.53;;;-0.12;53.04
70200;BME280;57587;55.688;37.600;2023-01-05T09:51:52;98363.34;;;-0.12;53.90
70200;BME280;57587;55.688;37.600;2023-01-05T09:54:21;98366.00;;;-0.12;53.46
70200;BME280;57587;55.688;37.600;2023-01-05T09:56:49;98362.47;;;-0.03;53.01
70200;BME280;57587;55.688;37.600;2023-01-05T09:59:40;98352.25;;;-0.06;52.66
70200;BME280;57587;55.688;37.600;2023-01-05T10:02:33;98354.34;;;-0.09;52.40
70200;BME280;57587;55.688;37.600;2023-01-05T10:05:10;98358.09;;;-0.12;52.43
70200;BME280;57587;55.688;37.600;2023-01-05T10:07:43;98352.72;;;-0.20;52.20
70200;BME280;57587;55.688;37.600;2023-01-05T10:10:31;98354.00;;;-0.24;51.99
70200;BME280;57587;55.688;37.600;2023-01-05T10:13:07;98355.16;;;-0.36;51.74
70200;BME280;57587;55.688;37.600;2023-01-05T10:15:47;98359.44;;;-0.35;51.77
70200;BME280;57587;55.688;37.600;2023-01-05T10:18:17;98354.63;;;-0.40;51.48
70200;BME280;57587;55.688;37.600;2023-01-05T10:21:05;98361.41;;;-0.47;51.90
70200;BME280;57587;55.688;37.600;2023-01-05T10:26:33;98357.88;;;-0.56;51.79
70200;BME280;57587;55.688;37.600;2023-01-05T10:29:33;98354.63;;;-0.50;51.77
70200;BME280;57587;55.688;37.600;2023-01-05T10:32:23;98353.81;;;-0.50;50.95
70200;BME280;57587;55.688;37.600;2023-01-05T10:34:57;98355.63;;;-0.51;51.26
70200;BME280;57587;55.688;37.600;2023-01-05T10:40:16;98356.16;;;-0.47;51.64
70200;BME280;57587;55.688;37.600;2023-01-05T10:45:35;98359.28;;;-0.71;51.42
70200;BME280;57587;55.688;37.600;2023-01-05T10:48:27;98353.06;;;-0.80;51.35
70200;BME280;57587;55.688;37.600;2023-01-05T10:50:56;98365.22;;;-0.79;50.59
70200;BME280;57587;55.688;37.600;2023-01-05T10:53:24;98362.06;;;-0.82;50.33
70200;BME280;57587;55.688;37.600;2023-01-05T10:58:25;98361.69;;;-1.07;50.62
70200;BME280;57587;55.688;37.600;2023-01-05T11:00:55;98360.69;;;-1.06;50.59
70200;BME280;57587;55.688;37.600;2023-01-05T11:03:44;98362.25;;;-1.13;50.21
70200;BME280;57587;55.688;37.600;2023-01-05T11:06:34;98366.94;;;-1.26;50.33
70200;BME280;57587;55.688;37.600;2023-01-05T11:12:03;98362.66;;;-1.27;50.87
70200;BME280;57587;55.688;37.600;2023-01-05T11:14:40;98356.84;;;-1.41;49.58
70200;BME280;57587;55.688;37.600;2023-01-05T11:17:16;98353.84;;;-1.36;49.73
70200;BME280;57587;55.688;37.600;2023-01-05T11:19:51;98355.59;;;-1.36;50.05
70200;BME280;57587;55.688;37.600;2023-01-05T11:22:36;98362.25;;;-1.32;49.32
70200;BME280;57587;55.688;37.600;2023-01-05T11:25:27;98361.81;;;-1.37;49.52
70200;BME280;57587;55.688;37.600;2023-01-05T11:28:09;98359.63;;;-1.32;49.33
70200;BME280;57587;55.688;37.600;2023-01-05T11:30:56;98359.75;;;-1.34;48.91
70200;BME280;57587;55.688;37.600;2023-01-05T11:33:26;98354.09;;;-1.39;49.45
70200;BME280;57587;55.688;37.600;2023-01-05T11:35:56;98351.34;;;-1.37;49.04
70200;BME280;57587;55.688;37.600;2023-01-05T11:38:29;98354.66;;;-1.45;48.98
70200;BME280;57587;55.688;37.600;2023-01-05T11:40:57;98345.66;;;-1.43;49.15
70200;BME280;57587;55.688;37.600;2023-01-05T11:43:28;98356.31;;;-1.34;49.08
70200;BME280;57587;55.688;37.600;2023-01-05T11:46:02;98350.09;;;-1.43;49.47
70200;BME280;57587;55.688;37.600;2023-01-05T11:48:33;98348.56;;;-1.46;48.89
70200;BME280;57587;55.688;37.600;2023-01-05T11:51:01;98355.22;;;-1.42;49.72
70200;BME280;57587;55.688;37.600;2023-01-05T11:53:37;98350.50;;;-1.38;49.57
70200;BME280;57587;55.688;37.600;2023-01-05T11:56:20;98352.72;;;-1.43;48.86
70200;BME280;57587;55.688;37.600;2023-01-05T11:58:51;98350.78;;;-1.51;48.31
70200;BME280;57587;55.688;37.600;2023-01-05T12:01:50;98345.38;;;-1.59;48.45
70200;BME280;57587;55.688;37.600;2023-01-05T12:07:03;98337.78;;;-1.62;48.45
70200;BME280;57587;55.688;37.600;2023-01-05T12:09:36;98344.72;;;-1.61;48.87
70200;BME280;57587;55.688;37.600;2023-01-05T12:12:44;98339.47;;;-1.61;48.31
70200;BME280;57587;55.688;37.600;2023-01-05T12:20:55;98340.66;;;-1.84;48.49
70200;BME280;57587;55.688;37.600;2023-01-05T12:29:19;98347.25;;;-2.00;49.03
70200;BME280;57587;55.688;37.600;2023-01-05T12:41:36;98353.66;;;-2.54;50.20
70200;BME280;57587;55.688;37.600;2023-01-05T12:46:58;98361.53;;;-2.85;50.51
70200;BME280;57587;55.688;37.600;2023-01-05T12:49:32;98360.81;;;-2.87;50.20
70200;BME280;57587;55.688;37.600;2023-01-05T12:54:43;98357.06;;;-2.94;50.87
70200;BME280;57587;55.688;37.600;2023-01-05T12:57:40;98369.69;;;-2.99;51.09
70200;BME280;57587;55.688;37.600;2023-01-05T13:00:16;98371.59;;;-3.01;51.26
70200;BME280;57587;55.688;37.600;2023-01-05T13:03:04;98368.81;;;-3.09;51.57
70200;BME280;57587;55.688;37.600;2023-01-05T13:06:16;98374.72;;;-3.07;51.68
70200;BME280;57587;55.688;37.600;2023-01-05T13:11:19;98370.81;;;-3.13;51.18
70200;BME280;57587;55.688;37.600;2023-01-05T13:14:02;98370.88;;;-3.24;51.35
70200;BME280;57587;55.688;37.600;2023-01-05T13:16:38;98368.78;;;-3.30;51.49
70200;BME280;57587;55.688;37.600;2023-01-05T13:19:19;98374.84;;;-3.30;51.73
70200;BME280;57587;55.688;37.600;2023-01-05T13:21:51;98373.72;;;-3.16;51.09
70200;BME280;57587;55.688;37.600;2023-01-05T13:24:29;98374.53;;;-3.15;51.14
70200;BME280;57587;55.688;37.600;2023-01-05T13:27:00;98378.16;;;-3.28;50.96
70200;BME280;57587;55.688;37.600;2023-01-05T13:29:40;98374.34;;;-3.23;51.69
70200;BME280;57587;55.688;37.600;2023-01-05T13:32:24;98382.75;;;-3.20;51.28
70200;BME280;57587;55.688;37.600;2023-01-05T13:40:55;98378.94;;;-3.16;50.37
70200;BME280;57587;55.688;37.600;2023-01-05T13:54:51;98387.94;;;-3.41;50.84
70200;BME280;57587;55.688;37.600;2023-01-05T13:57:36;98388.84;;;-3.52;50.30
70200;BME280;57587;55.688;37.600;2023-01-05T14:03:00;98386.41;;;-3.76;50.78
70200;BME280;57587;55.688;37.600;2023-01-05T14:13:58;98400.34;;;-4.09;52.20
70200;BME280;57587;55.688;37.600;2023-01-05T14:24:37;98411.88;;;-4.11;51.03
70200;BME280;57587;55.688;37.600;2023-01-05T14:27:18;98413.44;;;-4.20;51.40
70200;BME280;57587;55.688;37.600;2023-01-05T14:34:51;98425.88;;;-4.35;51.81
70200;BME280;57587;55.688;37.600;2023-01-05T14:37:35;98423.03;;;-4.21;51.43
70200;BME280;57587;55.688;37.600;2023-01-05T14:40:33;98423.38;;;-4.25;51.75
70200;BME280;57587;55.688;37.600;2023-01-05T14:43:27;98433.38;;;-4.30;51.60
70200;BME280;57587;55.688;37.600;2023-01-05T14:49:08;98428.00;;;-4.40;51.10
70200;BME280;57587;55.688;37.600;2023-01-05T14:51:36;98424.81;;;-4.32;51.74
70200;BME280;57587;55.688;37.600;2023-01-05T14:54:05;98434.19;;;-4.30;51.16
70200;BME280;57587;55.688;37.600;2023-01-05T14:56:34;98430.97;;;-4.22;50.67
70200;BME280;57587;55.688;37.600;2023-01-05T14:59:23;98435.50;;;-4.13;50.96
70200;BME280;57587;55.688;37.600;2023-01-05T15:01:59;98433.03;;;-4.14;50.79
70200;BME280;57587;55.688;37.600;2023-01-05T15:04:30;98428.16;;;-4.08;51.08
70200;BME280;57587;55.688;37.600;2023-01-05T15:18:52;98419.69;;;-4.00;49.07
70200;BME280;57587;55.688;37.600;2023-01-05T15:32:01;98429.81;;;-4.29;49.59
70200;BME280;57587;55.688;37.600;2023-01-05T15:34:59;98434.56;;;-4.46;49.53
70200;BME280;57587;55.688;37.600;2023-01-05T15:37:30;98436.31;;;-4.57;49.72
70200;BME280;57587;55.688;37.600;2023-01-05T15:39:59;98438.41;;;-4.63;50.14